createdAt,value
2018-08-19T00:00:59.280Z,16.27
2018-08-19T00:02:04.824Z,16.24
2018-08-19T00:03:10.373Z,16.12
2018-08-19T00:04:15.946Z,16.20
2018-08-19T00:05:21.443Z,16.17
2018-08-19T00:06:26.990Z,16.23
2018-08-19T00:07:32.527Z,16.14
2018-08-19T00:08:38.071Z,16.14
2018-08-19T00:09:43.610Z,16.12
2018-08-19T00:10:49.148Z,16.21
2018-08-19T00:11:54.689Z,16.14
2018-08-19T00:13:00.230Z,16.17
2018-08-19T00:14:05.777Z,16.12
2018-08-19T00:15:11.313Z,16.15
2018-08-19T00:16:16.851Z,16.15
2018-08-19T00:17:22.389Z,16.23
2018-08-19T00:18:27.931Z,16.20
2018-08-19T00:19:33.477Z,16.12
2018-08-19T00:20:39.020Z,16.12
2018-08-19T00:21:44.559Z,16.14
2018-08-19T00:22:50.096Z,16.15
2018-08-19T00:23:55.634Z,16.20
2018-08-19T00:25:01.174Z,16.25
2018-08-19T00:26:06.717Z,16.17
2018-08-19T00:27:12.259Z,16.24
2018-08-19T00:28:17.803Z,16.20
2018-08-19T00:29:23.338Z,16.28
2018-08-19T00:30:28.881Z,16.24
2018-08-19T00:31:34.419Z,16.24
2018-08-19T00:32:39.964Z,16.27
2018-08-19T00:33:45.498Z,16.15
2018-08-19T00:34:51.054Z,16.20
2018-08-19T00:35:56.576Z,16.27
2018-08-19T00:37:02.123Z,16.23
2018-08-19T00:38:07.667Z,16.20
2018-08-19T00:39:13.208Z,16.20
2018-08-19T00:40:18.743Z,16.24
2018-08-19T00:41:24.282Z,16.17
2018-08-19T00:42:29.823Z,16.21
2018-08-19T00:43:35.366Z,16.20
2018-08-19T00:44:40.911Z,16.15
2018-08-19T00:45:46.447Z,16.20
2018-08-19T00:46:51.994Z,16.21
2018-08-19T00:47:57.531Z,16.12
2018-08-19T00:49:03.070Z,16.17
2018-08-19T00:50:08.608Z,16.12
2018-08-19T00:51:14.152Z,16.07
2018-08-19T00:52:19.690Z,16.20
2018-08-19T00:53:25.234Z,16.20
2018-08-19T00:54:30.770Z,16.23
2018-08-19T00:55:36.315Z,16.20
2018-08-19T00:56:41.851Z,16.24
2018-08-19T00:57:47.391Z,16.14
2018-08-19T00:58:52.938Z,16.14
2018-08-19T00:59:58.475Z,16.20
2018-08-19T01:01:04.014Z,16.15
2018-08-19T01:02:09.559Z,16.15
2018-08-19T01:03:15.093Z,16.17
2018-08-19T01:04:20.641Z,16.09
2018-08-19T01:05:26.175Z,16.20
2018-08-19T01:06:31.716Z,16.17
2018-08-19T01:07:37.258Z,16.05
2018-08-19T01:08:42.800Z,16.11
2018-08-19T01:09:48.337Z,16.09
2018-08-19T01:10:53.883Z,16.04
2018-08-19T01:11:59.425Z,16.11
2018-08-19T01:13:04.965Z,16.07
2018-08-19T01:14:10.528Z,16.04
2018-08-19T01:15:16.043Z,16.01
2018-08-19T01:16:21.582Z,16.01
2018-08-19T01:17:27.124Z,15.93
2018-08-19T01:18:32.687Z,16.01
2018-08-19T01:19:38.208Z,16.02
2018-08-19T01:20:43.742Z,16.00
2018-08-19T01:21:49.285Z,15.93
2018-08-19T01:22:54.826Z,15.87
2018-08-19T01:24:00.369Z,15.92
2018-08-19T01:25:05.904Z,15.82
2018-08-19T01:26:11.442Z,15.86
2018-08-19T01:27:16.985Z,15.93
2018-08-19T01:28:22.532Z,15.89
2018-08-19T01:29:28.066Z,15.86
2018-08-19T01:30:33.627Z,15.83
2018-08-19T01:31:39.151Z,15.86
2018-08-19T01:32:44.687Z,15.86
2018-08-19T01:33:50.227Z,15.82
2018-08-19T01:34:55.820Z,15.78
2018-08-19T01:36:01.315Z,15.78
2018-08-19T01:37:06.850Z,15.74
2018-08-19T01:38:12.388Z,15.69
2018-08-19T01:39:17.935Z,15.71
2018-08-19T01:40:23.476Z,15.65
2018-08-19T01:41:29.011Z,15.57
2018-08-19T01:42:34.565Z,15.62
2018-08-19T01:43:40.100Z,15.59
2018-08-19T01:44:45.636Z,15.60
2018-08-19T01:45:51.171Z,15.57
2018-08-19T01:46:56.712Z,15.62
2018-08-19T01:48:02.253Z,15.56
2018-08-19T01:49:07.793Z,15.60
2018-08-19T01:50:13.334Z,15.59
2018-08-19T01:51:18.880Z,15.60
2018-08-19T01:52:24.418Z,15.57
2018-08-19T01:53:29.955Z,15.65
2018-08-19T01:54:35.495Z,15.65
2018-08-19T01:55:41.035Z,15.65
2018-08-19T01:56:46.576Z,15.60
2018-08-19T01:57:52.117Z,15.60
2018-08-19T01:58:57.658Z,15.49
2018-08-19T02:00:03.195Z,15.51
2018-08-19T02:01:08.739Z,15.54
2018-08-19T02:02:14.280Z,15.51
2018-08-19T02:03:19.820Z,15.57
2018-08-19T02:04:25.356Z,15.51
2018-08-19T02:05:30.902Z,15.47
2018-08-19T02:06:36.445Z,15.59
2018-08-19T02:07:41.981Z,15.50
2018-08-19T02:08:47.524Z,15.49
2018-08-19T02:09:53.063Z,15.46
2018-08-19T02:10:58.603Z,15.51
2018-08-19T02:12:04.140Z,15.46
2018-08-19T02:13:09.683Z,15.46
2018-08-19T02:14:15.232Z,15.34
2018-08-19T02:15:20.761Z,15.43
2018-08-19T02:16:26.307Z,15.46
2018-08-19T02:17:31.843Z,15.46
2018-08-19T02:18:37.380Z,15.50
2018-08-19T02:19:42.928Z,15.47
2018-08-19T02:20:48.543Z,15.43
2018-08-19T02:21:54.005Z,15.44
2018-08-19T02:22:59.545Z,15.44
2018-08-19T02:24:05.083Z,15.35
2018-08-19T02:25:10.622Z,15.39
2018-08-19T02:26:16.162Z,15.38
2018-08-19T02:27:21.704Z,15.41
2018-08-19T02:28:27.252Z,15.39
2018-08-19T02:29:32.787Z,15.43
2018-08-19T02:30:38.329Z,15.35
2018-08-19T02:31:43.861Z,15.36
2018-08-19T02:32:49.401Z,15.36
2018-08-19T02:33:54.942Z,15.41
2018-08-19T02:35:00.491Z,15.38
2018-08-19T02:36:06.037Z,15.43
2018-08-19T02:37:11.570Z,15.38
2018-08-19T02:38:17.123Z,15.36
2018-08-19T02:39:22.644Z,15.36
2018-08-19T02:40:28.180Z,15.41
2018-08-19T02:41:33.729Z,15.31
2018-08-19T02:42:39.265Z,15.35
2018-08-19T02:43:44.804Z,15.35
2018-08-19T02:44:50.350Z,15.44
2018-08-19T02:45:55.892Z,15.32
2018-08-19T02:47:01.426Z,15.39
2018-08-19T02:48:06.964Z,15.31
2018-08-19T02:49:12.517Z,15.31
2018-08-19T02:50:18.043Z,15.32
2018-08-19T02:51:23.588Z,15.32
2018-08-19T02:52:29.132Z,15.28
2018-08-19T02:53:34.665Z,15.25
2018-08-19T02:54:40.203Z,15.31
2018-08-19T02:55:45.747Z,15.29
2018-08-19T02:56:51.289Z,15.29
2018-08-19T02:57:56.828Z,15.23
2018-08-19T02:59:02.374Z,15.28
2018-08-19T03:00:07.905Z,15.29
2018-08-19T03:01:13.445Z,15.25
2018-08-19T03:02:18.986Z,15.27
2018-08-19T03:03:24.524Z,15.25
2018-08-19T03:04:30.073Z,15.20
2018-08-19T03:05:35.610Z,15.17
2018-08-19T03:06:41.149Z,15.19
2018-08-19T03:07:46.693Z,15.20
2018-08-19T03:08:52.226Z,15.13
2018-08-19T03:09:57.770Z,15.13
2018-08-19T03:11:03.304Z,15.14
2018-08-19T03:12:08.850Z,15.16
2018-08-19T03:13:14.385Z,15.10
2018-08-19T03:14:19.931Z,15.06
2018-08-19T03:15:25.465Z,15.07
2018-08-19T03:16:31.010Z,15.06
2018-08-19T03:17:36.549Z,15.06
2018-08-19T03:18:42.085Z,15.13
2018-08-19T03:19:47.629Z,15.19
2018-08-19T03:20:53.167Z,15.20
2018-08-19T03:21:58.705Z,15.13
2018-08-19T03:23:04.252Z,15.10
2018-08-19T03:24:09.789Z,15.06
2018-08-19T03:25:15.328Z,14.96
2018-08-19T03:26:20.872Z,14.94
2018-08-19T03:27:26.413Z,15.01
2018-08-19T03:28:31.943Z,14.99
2018-08-19T03:29:37.491Z,15.06
2018-08-19T03:30:43.028Z,15.01
2018-08-19T03:31:48.569Z,14.96
2018-08-19T03:32:54.115Z,14.94
2018-08-19T03:33:59.651Z,14.95
2018-08-19T03:35:05.186Z,14.88
2018-08-19T03:36:10.727Z,14.86
2018-08-19T03:37:16.263Z,14.88
2018-08-19T03:38:21.805Z,14.95
2018-08-19T03:39:27.349Z,14.91
2018-08-19T03:40:32.886Z,14.83
2018-08-19T03:41:38.428Z,14.91
2018-08-19T03:42:43.968Z,14.88
2018-08-19T03:43:49.509Z,14.89
2018-08-19T03:44:55.044Z,14.84
2018-08-19T03:46:00.590Z,14.86
2018-08-19T03:47:06.126Z,14.91
2018-08-19T03:48:11.668Z,14.81
2018-08-19T03:49:17.202Z,14.80
2018-08-19T03:50:22.749Z,14.81
2018-08-19T03:51:28.288Z,14.73
2018-08-19T03:52:33.830Z,14.73
2018-08-19T03:53:39.372Z,14.78
2018-08-19T03:54:44.907Z,14.75
2018-08-19T03:55:50.447Z,14.77
2018-08-19T03:56:55.982Z,14.75
2018-08-19T03:58:01.525Z,14.80
2018-08-19T03:59:07.063Z,14.73
2018-08-19T04:00:12.609Z,14.81
2018-08-19T04:01:18.145Z,14.75
2018-08-19T04:02:23.695Z,14.68
2018-08-19T04:03:29.220Z,14.77
2018-08-19T04:04:34.762Z,14.68
2018-08-19T04:05:40.301Z,14.77
2018-08-19T04:06:45.845Z,14.69
2018-08-19T04:07:51.380Z,14.70
2018-08-19T04:08:56.922Z,14.72
2018-08-19T04:10:02.465Z,14.64
2018-08-19T04:11:08.005Z,14.64
2018-08-19T04:12:13.538Z,14.58
2018-08-19T04:13:19.079Z,14.58
2018-08-19T04:14:24.622Z,14.64
2018-08-19T04:15:30.163Z,14.60
2018-08-19T04:16:35.702Z,14.64
2018-08-19T04:17:41.243Z,14.64
2018-08-19T04:18:46.779Z,14.77
2018-08-19T04:19:52.318Z,14.72
2018-08-19T04:20:57.859Z,14.73
2018-08-19T04:22:03.396Z,14.78
2018-08-19T04:23:08.936Z,14.72
2018-08-19T04:24:14.483Z,14.78
2018-08-19T04:25:20.017Z,14.77
2018-08-19T04:26:25.560Z,14.75
2018-08-19T04:27:31.096Z,14.73
2018-08-19T04:28:36.641Z,14.78
2018-08-19T04:29:42.186Z,14.77
2018-08-19T04:30:47.713Z,14.80
2018-08-19T04:31:53.254Z,14.83
2018-08-19T04:32:58.795Z,14.77
2018-08-19T04:34:04.340Z,14.72
2018-08-19T04:35:09.873Z,14.73
2018-08-19T04:36:15.416Z,14.80
2018-08-19T04:37:20.957Z,14.73
2018-08-19T04:38:26.490Z,14.88
2018-08-19T04:39:32.038Z,14.88
2018-08-19T04:40:37.577Z,14.89
2018-08-19T04:41:43.111Z,14.86
2018-08-19T04:42:48.658Z,14.81
2018-08-19T04:43:54.193Z,14.96
2018-08-19T04:44:59.731Z,14.96
2018-08-19T04:46:05.270Z,14.96
2018-08-19T04:47:10.815Z,14.98
2018-08-19T04:48:16.348Z,14.96
2018-08-19T04:49:21.890Z,15.06
2018-08-19T04:50:27.429Z,15.07
2018-08-19T04:51:32.972Z,15.07
2018-08-19T04:52:38.508Z,15.19
2018-08-19T04:53:44.049Z,15.11
2018-08-19T04:54:49.593Z,15.20
2018-08-19T04:55:55.127Z,15.23
2018-08-19T04:57:00.668Z,15.25
2018-08-19T04:58:06.213Z,15.31
2018-08-19T04:59:11.750Z,15.31
2018-08-19T05:00:17.285Z,15.32
2018-08-19T05:01:22.829Z,15.38
2018-08-19T05:02:28.391Z,15.43
2018-08-19T05:03:33.905Z,15.49
2018-08-19T05:04:39.449Z,15.41
2018-08-19T05:05:44.990Z,15.57
2018-08-19T05:06:50.524Z,15.60
2018-08-19T05:07:56.119Z,15.65
2018-08-19T05:09:01.603Z,15.72
2018-08-19T05:10:07.147Z,15.71
2018-08-19T05:11:12.691Z,15.80
2018-08-19T05:12:18.224Z,15.76
2018-08-19T05:13:23.766Z,15.92
2018-08-19T05:14:29.310Z,15.86
2018-08-19T05:15:34.939Z,15.89
2018-08-19T05:16:40.394Z,15.97
2018-08-19T05:17:45.928Z,16.02
2018-08-19T05:18:51.475Z,15.97
2018-08-19T05:19:57.004Z,16.02
2018-08-19T05:21:02.548Z,16.02
2018-08-19T05:22:08.086Z,16.05
2018-08-19T05:23:13.628Z,16.11
2018-08-19T05:24:19.174Z,16.12
2018-08-19T05:25:24.707Z,16.15
2018-08-19T05:26:30.252Z,16.20
2018-08-19T05:27:35.792Z,16.15
2018-08-19T05:28:41.328Z,16.12
2018-08-19T05:29:46.869Z,16.25
2018-08-19T05:30:52.412Z,16.25
2018-08-19T05:31:57.952Z,16.25
2018-08-19T05:33:03.492Z,16.23
2018-08-19T05:34:09.035Z,16.35
2018-08-19T05:35:14.569Z,16.35
2018-08-19T05:36:20.114Z,16.38
2018-08-19T05:37:25.648Z,16.38
2018-08-19T05:38:31.188Z,16.42
2018-08-19T05:39:36.732Z,16.42
2018-08-19T05:40:42.274Z,16.43
2018-08-19T05:41:47.811Z,16.57
2018-08-19T05:42:53.352Z,16.68
2018-08-19T05:43:58.889Z,16.70
2018-08-19T05:45:04.435Z,16.75
2018-08-19T05:46:09.977Z,16.85
2018-08-19T05:47:15.613Z,16.97
2018-08-19T05:48:21.054Z,17.01
2018-08-19T05:49:26.599Z,17.11
2018-08-19T05:50:32.132Z,17.21
2018-08-19T05:51:37.680Z,17.23
2018-08-19T05:52:43.218Z,17.26
2018-08-19T05:53:48.760Z,17.36
2018-08-19T05:54:54.302Z,17.44
2018-08-19T05:55:59.843Z,17.66
2018-08-19T05:57:05.385Z,17.66
2018-08-19T05:58:10.922Z,17.64
2018-08-19T05:59:16.462Z,17.77
2018-08-19T06:00:22.002Z,17.86
2018-08-19T06:01:27.545Z,17.93
2018-08-19T06:02:33.090Z,17.97
2018-08-19T06:03:38.622Z,18.07
2018-08-19T06:04:44.169Z,18.14
2018-08-19T06:05:49.710Z,18.15
2018-08-19T06:06:55.251Z,18.23
2018-08-19T06:08:00.792Z,18.39
2018-08-19T06:09:06.332Z,18.41
2018-08-19T06:10:11.870Z,18.54
2018-08-19T06:11:17.409Z,18.58
2018-08-19T06:12:22.955Z,18.55
2018-08-19T06:13:28.498Z,18.58
2018-08-19T06:14:34.039Z,18.67
2018-08-19T06:15:39.580Z,18.67
2018-08-19T06:16:45.115Z,18.75
2018-08-19T06:17:50.657Z,18.72
2018-08-19T06:18:56.200Z,18.75
2018-08-19T06:20:01.740Z,18.72
2018-08-19T06:21:07.287Z,18.73
2018-08-19T06:22:12.828Z,18.73
2018-08-19T06:23:18.369Z,18.75
2018-08-19T06:24:23.916Z,18.72
2018-08-19T06:25:29.449Z,18.73
2018-08-19T06:26:34.988Z,18.76
2018-08-19T06:27:40.537Z,18.76
2018-08-19T06:28:46.078Z,18.75
2018-08-19T06:29:51.615Z,18.72
2018-08-19T06:30:57.208Z,18.80
2018-08-19T06:32:02.701Z,18.67
2018-08-19T06:33:08.262Z,18.73
2018-08-19T06:34:13.784Z,18.78
2018-08-19T06:35:19.326Z,18.78
2018-08-19T06:36:24.928Z,18.80
2018-08-19T06:37:30.403Z,18.84
2018-08-19T06:38:35.953Z,18.80
2018-08-19T06:39:41.491Z,18.81
2018-08-19T06:40:47.032Z,18.84
2018-08-19T06:41:52.570Z,18.80
2018-08-19T06:42:58.120Z,18.85
2018-08-19T06:44:03.708Z,18.90
2018-08-19T06:45:09.201Z,18.91
2018-08-19T06:46:14.742Z,18.88
2018-08-19T06:47:20.287Z,18.88
2018-08-19T06:48:25.821Z,18.95
2018-08-19T06:49:31.358Z,18.98
2018-08-19T06:50:36.954Z,19.07
2018-08-19T06:51:42.444Z,19.02
2018-08-19T06:52:47.988Z,19.08
2018-08-19T06:53:53.526Z,19.10
2018-08-19T06:54:59.068Z,19.07
2018-08-19T06:56:04.614Z,19.08
2018-08-19T06:57:10.158Z,19.16
2018-08-19T06:58:15.699Z,19.21
2018-08-19T06:59:21.236Z,19.21
2018-08-19T07:00:26.786Z,19.11
2018-08-19T07:01:32.323Z,19.14
2018-08-19T07:02:38.000Z,19.29
2018-08-19T07:03:44.046Z,19.26
2018-08-19T07:04:49.011Z,19.36
2018-08-19T07:05:54.487Z,19.32
2018-08-19T07:07:00.031Z,19.33
2018-08-19T07:08:05.575Z,19.41
2018-08-19T07:09:11.189Z,19.48
2018-08-19T07:10:16.729Z,19.55
2018-08-19T07:11:22.201Z,19.55
2018-08-19T07:12:27.742Z,19.50
2018-08-19T07:13:33.276Z,19.50
2018-08-19T07:14:38.824Z,19.58
2018-08-19T07:15:44.380Z,19.68
2018-08-19T07:16:49.904Z,19.65
2018-08-19T07:17:55.441Z,19.68
2018-08-19T07:19:00.985Z,19.71
2018-08-19T07:20:06.537Z,19.78
2018-08-19T07:21:12.074Z,19.76
2018-08-19T07:22:17.611Z,19.91
2018-08-19T07:23:23.155Z,19.86
2018-08-19T07:24:28.739Z,19.96
2018-08-19T07:25:34.244Z,19.88
2018-08-19T07:26:39.809Z,19.86
2018-08-19T07:27:45.324Z,19.84
2018-08-19T07:28:50.869Z,19.86
2018-08-19T07:29:56.415Z,19.96
2018-08-19T07:31:01.949Z,19.95
2018-08-19T07:32:07.497Z,19.96
2018-08-19T07:33:13.032Z,19.94
2018-08-19T07:34:18.579Z,19.96
2018-08-19T07:35:24.120Z,19.88
2018-08-19T07:36:29.664Z,20.02
2018-08-19T07:37:35.200Z,20.03
2018-08-19T07:38:40.743Z,19.99
2018-08-19T07:39:46.292Z,20.01
2018-08-19T07:40:51.851Z,20.02
2018-08-19T07:41:57.393Z,20.14
2018-08-19T07:43:02.914Z,20.10
2018-08-19T07:44:08.453Z,20.05
2018-08-19T07:45:13.999Z,20.16
2018-08-19T07:46:19.543Z,20.11
2018-08-19T07:48:57.532Z,20.35
2018-08-19T07:50:03.059Z,20.42
2018-08-19T07:53:33.116Z,20.64
2018-08-19T07:54:38.641Z,20.80
2018-08-19T07:56:37.066Z,20.92
2018-08-19T07:59:14.197Z,21.04
2018-08-19T08:00:19.728Z,21.07
2018-08-19T08:02:18.153Z,21.22
2018-08-19T08:03:23.683Z,21.24
2018-08-19T08:05:22.133Z,21.29
2018-08-19T08:06:27.647Z,21.38
2018-08-19T08:08:26.360Z,21.42
2018-08-19T08:09:31.613Z,21.47
2018-08-19T08:10:37.150Z,21.58
2018-08-19T08:11:42.694Z,21.59
2018-08-19T08:12:48.480Z,21.72
2018-08-19T08:13:53.811Z,21.71
2018-08-19T08:14:59.315Z,21.94
2018-08-19T08:16:04.864Z,21.91
2018-08-19T08:17:10.786Z,22.00
2018-08-19T08:18:17.049Z,22.05
2018-08-19T08:19:21.601Z,22.12
2018-08-19T08:20:27.275Z,22.20
2018-08-19T08:21:33.052Z,22.25
2018-08-19T08:22:38.483Z,22.35
2018-08-19T08:23:43.667Z,22.28
2018-08-19T08:24:49.203Z,22.35
2018-08-19T08:25:54.750Z,22.27
2018-08-19T08:27:00.293Z,22.39
2018-08-19T08:29:37.432Z,22.33
2018-08-19T08:30:42.971Z,22.33
2018-08-19T08:32:41.386Z,22.37
2018-08-19T08:33:46.929Z,22.36
2018-08-19T08:34:52.487Z,22.28
2018-08-19T08:35:58.008Z,22.33
2018-08-19T08:37:03.561Z,22.35
2018-08-19T08:38:09.098Z,22.31
2018-08-19T08:39:14.641Z,22.42
2018-08-19T08:40:20.185Z,22.33
2018-08-19T08:41:25.843Z,22.36
2018-08-19T08:42:31.262Z,22.36
2018-08-19T08:43:36.812Z,22.37
2018-08-19T08:44:42.405Z,22.35
2018-08-19T08:45:47.897Z,22.37
2018-08-19T08:46:53.448Z,22.30
2018-08-19T08:47:59.068Z,22.36
2018-08-19T08:49:04.531Z,22.33
2018-08-19T08:50:10.066Z,22.33
2018-08-19T08:51:15.624Z,22.31
2018-08-19T08:52:21.159Z,22.28
2018-08-19T08:53:26.729Z,22.25
2018-08-19T08:54:32.246Z,22.20
2018-08-19T08:55:37.803Z,22.17
2018-08-19T08:56:43.328Z,22.22
2018-08-19T08:57:48.872Z,22.22
2018-08-19T09:00:26.077Z,22.37
2018-08-19T09:01:31.570Z,22.35
2018-08-19T09:02:37.110Z,22.40
2018-08-19T09:03:42.649Z,22.36
2018-08-19T09:04:48.188Z,22.35
2018-08-19T09:05:53.733Z,22.39
2018-08-19T09:06:59.290Z,22.45
2018-08-19T09:08:04.827Z,22.45
2018-08-19T09:09:10.369Z,22.40
2018-08-19T09:10:15.909Z,22.45
2018-08-19T09:11:21.449Z,22.47
2018-08-19T09:12:26.990Z,22.49
2018-08-19T09:13:32.531Z,22.55
2018-08-19T09:14:38.079Z,22.57
2018-08-19T09:15:43.613Z,22.54
2018-08-19T09:16:49.159Z,22.61
2018-08-19T09:17:54.777Z,22.57
2018-08-19T09:19:00.247Z,22.58
2018-08-19T09:20:05.782Z,22.60
2018-08-19T09:21:11.330Z,22.60
2018-08-19T09:22:16.869Z,22.55
2018-08-19T09:23:22.559Z,22.43
2018-08-19T09:24:27.955Z,22.49
2018-08-19T09:25:33.503Z,22.55
2018-08-19T09:26:39.042Z,22.47
2018-08-19T09:27:44.591Z,22.43
2018-08-19T09:28:50.136Z,22.40
2018-08-19T09:29:55.678Z,22.49
2018-08-19T09:31:01.214Z,22.55
2018-08-19T09:32:06.763Z,22.57
2018-08-19T09:33:12.305Z,22.67
2018-08-19T09:34:17.850Z,22.75
2018-08-19T09:35:23.414Z,22.82
2018-08-19T09:36:28.931Z,22.86
2018-08-19T09:37:34.477Z,22.92
2018-08-19T09:38:40.021Z,22.98
2018-08-19T09:39:45.564Z,23.01
2018-08-19T09:40:51.179Z,23.07
2018-08-19T09:41:56.650Z,23.15
2018-08-19T09:43:02.204Z,23.16
2018-08-19T09:44:07.749Z,23.25
2018-08-19T09:45:13.293Z,23.32
2018-08-19T09:46:18.841Z,23.33
2018-08-19T09:47:24.382Z,23.39
2018-08-19T09:48:29.912Z,23.50
2018-08-19T09:49:35.460Z,23.58
2018-08-19T09:50:41.008Z,23.63
2018-08-19T09:51:46.559Z,23.63
2018-08-19T09:52:52.090Z,23.73
2018-08-19T09:53:57.634Z,23.69
2018-08-19T09:55:03.181Z,23.78
2018-08-19T09:56:08.719Z,23.90
2018-08-19T09:57:14.268Z,23.78
2018-08-19T09:58:19.814Z,23.90
2018-08-19T09:59:25.353Z,23.87
2018-08-19T10:00:30.901Z,23.85
2018-08-19T10:01:36.481Z,23.87
2018-08-19T10:02:41.987Z,23.93
2018-08-19T10:03:47.531Z,23.87
2018-08-19T10:04:53.075Z,23.90
2018-08-19T10:05:58.638Z,23.80
2018-08-19T10:10:07.870Z,23.79
2018-08-19T10:11:13.387Z,23.79
2018-08-19T10:13:11.815Z,23.93
2018-08-19T10:14:17.354Z,24.03
2018-08-19T10:15:22.898Z,23.98
2018-08-19T10:16:28.442Z,24.16
2018-08-19T10:17:34.024Z,24.18
2018-08-19T10:18:39.540Z,24.12
2018-08-19T10:19:45.074Z,24.06
2018-08-19T10:20:50.618Z,23.98
2018-08-19T10:21:56.161Z,23.95
2018-08-19T10:23:01.712Z,23.97
2018-08-19T10:24:07.245Z,23.88
2018-08-19T10:25:12.790Z,23.90
2018-08-19T10:26:18.339Z,23.72
2018-08-19T10:27:23.878Z,23.72
2018-08-19T10:28:29.424Z,23.72
2018-08-19T10:29:34.973Z,23.69
2018-08-19T10:30:40.521Z,23.72
2018-08-19T10:31:46.060Z,23.83
2018-08-19T10:32:51.643Z,23.88
2018-08-19T10:33:57.157Z,23.79
2018-08-19T10:35:02.702Z,23.72
2018-08-19T10:36:08.240Z,23.79
2018-08-19T10:37:13.784Z,23.75
2018-08-19T10:38:19.330Z,23.72
2018-08-19T10:39:24.903Z,23.73
2018-08-19T10:40:30.417Z,23.75
2018-08-19T10:41:35.953Z,23.72
2018-08-19T10:42:41.507Z,23.69
2018-08-19T10:43:47.048Z,23.72
2018-08-19T10:44:52.602Z,23.69
2018-08-19T10:45:58.141Z,23.69
2018-08-19T10:47:03.682Z,23.69
2018-08-19T10:48:09.250Z,23.70
2018-08-19T10:49:14.774Z,23.73
2018-08-19T10:50:20.311Z,23.84
2018-08-19T10:51:25.859Z,23.94
2018-08-19T10:52:31.427Z,23.93
2018-08-19T10:53:36.999Z,23.94
2018-08-19T10:54:42.495Z,24.08
2018-08-19T10:55:48.209Z,24.18
2018-08-19T10:56:53.604Z,24.15
2018-08-19T10:57:59.142Z,24.18
2018-08-19T10:59:05.256Z,24.12
2018-08-19T11:00:10.239Z,24.15
2018-08-19T11:01:15.772Z,24.10
2018-08-19T11:02:21.309Z,24.10
2018-08-19T11:03:26.914Z,24.13
2018-08-19T11:04:32.401Z,24.13
2018-08-19T11:05:37.957Z,24.20
2018-08-19T11:06:43.609Z,24.21
2018-08-19T11:07:50.099Z,24.30
2018-08-19T11:08:54.574Z,24.30
2018-08-19T11:10:00.119Z,24.35
2018-08-19T11:11:05.657Z,24.40
2018-08-19T11:12:11.207Z,24.53
2018-08-19T11:13:16.959Z,24.53
2018-08-19T11:14:22.294Z,24.60
2018-08-19T11:15:35.015Z,24.73
2018-08-19T11:17:26.292Z,24.95
2018-08-19T11:18:39.080Z,24.96
2018-08-19T11:20:30.250Z,25.25
2018-08-19T11:21:35.789Z,25.30
2018-08-19T11:23:34.229Z,25.35
2018-08-19T11:24:39.760Z,25.33
2018-08-19T11:26:38.205Z,25.27
2018-08-19T11:27:43.729Z,25.18
2018-08-19T11:28:49.447Z,25.06
2018-08-19T11:29:54.817Z,24.96
2018-08-19T11:31:00.364Z,24.95
2018-08-19T11:32:05.905Z,24.93
2018-08-19T11:33:11.448Z,24.91
2018-08-19T11:34:16.998Z,24.85
2018-08-19T11:35:22.541Z,24.83
2018-08-19T11:36:28.088Z,24.84
2018-08-19T11:37:33.635Z,24.87
2018-08-19T11:38:39.177Z,24.77
2018-08-19T11:39:44.720Z,24.88
2018-08-19T11:40:50.268Z,24.99
2018-08-19T11:41:55.811Z,24.99
2018-08-19T11:43:01.353Z,25.28
2018-08-19T11:44:06.902Z,25.38
2018-08-19T11:45:12.450Z,25.55
2018-08-19T11:46:18.017Z,25.51
2018-08-19T11:47:23.542Z,25.50
2018-08-19T11:48:29.084Z,25.60
2018-08-19T11:49:34.629Z,25.65
2018-08-19T11:50:40.171Z,25.67
2018-08-19T11:51:45.722Z,25.80
2018-08-19T11:52:51.258Z,25.98
2018-08-19T11:53:56.813Z,26.07
2018-08-19T11:55:02.351Z,26.09
2018-08-19T11:56:07.903Z,26.23
2018-08-19T11:57:13.450Z,26.05
2018-08-19T11:58:18.992Z,26.10
2018-08-19T11:59:24.537Z,26.17
2018-08-19T12:00:30.097Z,26.26
2018-08-19T12:01:35.621Z,26.28
2018-08-19T12:02:41.171Z,26.40
2018-08-19T12:03:46.715Z,26.52
2018-08-19T12:04:52.265Z,26.57
2018-08-19T12:05:57.816Z,26.57
2018-08-19T12:07:03.412Z,26.44
2018-08-19T12:08:08.922Z,26.36
2018-08-19T12:09:14.440Z,26.52
2018-08-19T12:10:19.999Z,26.50
2018-08-19T12:11:25.544Z,26.39
2018-08-19T12:12:31.091Z,26.43
2018-08-19T12:13:36.629Z,26.26
2018-08-19T12:14:42.171Z,26.39
2018-08-19T12:15:47.728Z,26.29
2018-08-19T12:16:53.324Z,26.21
2018-08-19T12:17:58.814Z,26.12
2018-08-19T12:19:04.358Z,26.09
2018-08-19T12:20:09.898Z,25.91
2018-08-19T12:21:15.447Z,25.85
2018-08-19T12:22:21.021Z,25.94
2018-08-19T12:23:26.534Z,25.97
2018-08-19T12:24:32.082Z,26.18
2018-08-19T12:25:37.636Z,26.23
2018-08-19T12:26:43.179Z,26.35
2018-08-19T12:27:48.820Z,26.55
2018-08-19T12:28:54.271Z,26.55
2018-08-19T12:29:59.820Z,26.54
2018-08-19T12:31:05.363Z,26.67
2018-08-19T12:32:10.909Z,26.73
2018-08-19T12:33:16.453Z,26.77
2018-08-19T12:34:22.045Z,26.84
2018-08-19T12:35:27.546Z,26.76
2018-08-19T12:36:33.095Z,26.81
2018-08-19T12:37:38.808Z,26.76
2018-08-19T12:38:44.186Z,26.80
2018-08-19T12:39:49.733Z,26.72
2018-08-19T12:40:55.273Z,26.81
2018-08-19T12:42:00.820Z,26.70
2018-08-19T12:43:06.364Z,26.81
2018-08-19T12:44:11.920Z,26.75
2018-08-19T12:45:17.471Z,26.85
2018-08-19T12:46:23.009Z,26.95
2018-08-19T12:47:28.554Z,26.88
2018-08-19T12:48:34.101Z,26.80
2018-08-19T12:49:39.639Z,26.69
2018-08-19T12:50:45.186Z,26.70
2018-08-19T12:51:50.736Z,26.72
2018-08-19T12:52:56.284Z,26.76
2018-08-19T12:54:01.879Z,26.76
2018-08-19T12:55:07.377Z,26.65
2018-08-19T12:56:12.925Z,26.70
2018-08-19T12:57:18.474Z,26.75
2018-08-19T12:58:24.015Z,26.75
2018-08-19T12:59:29.562Z,26.82
2018-08-19T13:00:35.106Z,26.75
2018-08-19T13:01:40.653Z,26.80
2018-08-19T13:02:46.199Z,26.81
2018-08-19T13:03:51.752Z,26.84
2018-08-19T13:04:57.293Z,26.80
2018-08-19T13:06:02.866Z,26.82
2018-08-19T13:07:08.386Z,26.82
2018-08-19T13:08:13.930Z,26.81
2018-08-19T13:09:19.471Z,26.81
2018-08-19T13:10:25.026Z,26.75
2018-08-19T13:11:30.573Z,26.80
2018-08-19T13:12:36.116Z,26.82
2018-08-19T13:13:41.678Z,26.87
2018-08-19T13:14:47.207Z,26.85
2018-08-19T13:15:52.753Z,26.84
2018-08-19T13:16:58.294Z,26.89
2018-08-19T13:18:03.859Z,27.02
2018-08-19T13:19:09.390Z,27.06
2018-08-19T13:20:14.947Z,27.04
2018-08-19T13:21:22.417Z,27.02
2018-08-19T13:22:26.028Z,27.06
2018-08-19T13:23:31.581Z,27.00
2018-08-19T13:24:37.124Z,27.06
2018-08-19T13:25:42.672Z,26.92
2018-08-19T13:26:48.221Z,26.89
2018-08-19T13:27:53.764Z,26.89
2018-08-19T13:28:59.309Z,26.85
2018-08-19T13:30:04.850Z,26.91
2018-08-19T13:31:10.418Z,26.94
2018-08-19T13:32:15.942Z,26.77
2018-08-19T13:33:22.297Z,26.87
2018-08-19T13:34:27.046Z,26.84
2018-08-19T13:35:32.582Z,26.91
2018-08-19T13:36:38.132Z,26.82
2018-08-19T13:37:43.674Z,26.77
2018-08-19T13:38:49.225Z,26.85
2018-08-19T13:39:54.781Z,26.85
2018-08-19T13:41:00.319Z,26.84
2018-08-19T13:42:05.866Z,26.84
2018-08-19T13:43:11.410Z,26.81
2018-08-19T13:44:16.956Z,26.80
2018-08-19T13:45:22.582Z,26.81
2018-08-19T13:46:28.049Z,26.88
2018-08-19T13:47:33.592Z,26.89
2018-08-19T13:48:39.146Z,26.91
2018-08-19T13:49:44.691Z,26.89
2018-08-19T13:50:50.228Z,26.92
2018-08-19T13:51:55.781Z,26.95
2018-08-19T13:53:01.413Z,27.00
2018-08-19T13:54:06.873Z,27.06
2018-08-19T13:55:12.418Z,27.07
2018-08-19T13:56:17.975Z,27.07
2018-08-19T13:57:23.505Z,27.13
2018-08-19T13:58:29.054Z,27.14
2018-08-19T13:59:34.603Z,27.13
2018-08-19T14:00:40.148Z,27.19
2018-08-19T14:01:45.690Z,27.14
2018-08-19T14:02:51.267Z,27.25
2018-08-19T14:03:56.797Z,27.28
2018-08-19T14:05:02.332Z,27.31
2018-08-19T14:06:07.878Z,27.32
2018-08-19T14:07:13.424Z,27.43
2018-08-19T14:08:18.984Z,27.43
2018-08-19T14:09:24.526Z,27.39
2018-08-19T14:10:30.066Z,27.36
2018-08-19T14:11:35.614Z,27.29
2018-08-19T14:12:41.162Z,27.31
2018-08-19T14:13:46.705Z,27.22
2018-08-19T14:14:52.259Z,27.27
2018-08-19T14:15:57.809Z,27.19
2018-08-19T14:17:03.350Z,27.10
2018-08-19T14:18:08.891Z,27.03
2018-08-19T14:19:14.443Z,26.99
2018-08-19T14:20:19.992Z,26.89
2018-08-19T14:21:25.532Z,26.87
2018-08-19T14:22:31.080Z,26.81
2018-08-19T14:23:36.620Z,26.80
2018-08-19T14:24:42.169Z,26.80